sensor_id;sensor_type;location;lat;lon;timestamp;P1;durP1;ratioP1;P2;durP2;ratioP2
68987;SDS011;56038;46.080;11.116;2023-04-06T00:02:14;6.18;;;4.82;;
68987;SDS011;56038;46.080;11.116;2023-04-06T00:07:15;6.82;;;4.90;;
68987;SDS011;56038;46.080;11.116;2023-04-06T00:12:17;7.93;;;5.85;;
68987;SDS011;56038;46.080;11.116;2023-04-06T00:17:20;9.35;;;6.07;;
68987;SDS011;56038;46.080;11.116;2023-04-06T00:22:22;7.38;;;5.38;;
68987;SDS011;56038;46.080;11.116;2023-04-06T00:27:24;10.18;;;6.05;;
68987;SDS011;56038;46.080;11.116;2023-04-06T00:32:27;7.82;;;5.53;;
68987;SDS011;56038;46.080;11.116;2023-04-06T00:37:29;6.85;;;5.45;;
68987;SDS011;56038;46.080;11.116;2023-04-06T00:42:31;8.05;;;5.50;;
68987;SDS011;56038;46.080;11.116;2023-04-06T00:47:34;6.35;;;5.28;;
68987;SDS011;56038;46.080;11.116;2023-04-06T00:52:36;6.07;;;5.47;;
68987;SDS011;56038;46.080;11.116;2023-04-06T00:57:37;10.05;;;6.60;;
68987;SDS011;56038;46.080;11.116;2023-04-06T01:02:41;6.38;;;5.28;;
68987;SDS011;56038;46.080;11.116;2023-04-06T01:07:43;8.88;;;6.05;;
68987;SDS011;56038;46.080;11.116;2023-04-06T01:12:44;6.10;;;4.65;;
68987;SDS011;56038;46.080;11.116;2023-04-06T01:17:48;5.70;;;4.93;;
68987;SDS011;56038;46.080;11.116;2023-04-06T01:22:51;5.78;;;4.97;;
68987;SDS011;56038;46.080;11.116;2023-04-06T01:27:53;6.65;;;5.03;;
68987;SDS011;56038;46.080;11.116;2023-04-06T01:32:55;8.48;;;5.22;;
68987;SDS011;56038;46.080;11.116;2023-04-06T01:37:58;6.30;;;5.30;;
68987;SDS011;56038;46.080;11.116;2023-04-06T01:43:00;7.07;;;4.95;;
68987;SDS011;56038;46.080;11.116;2023-04-06T01:48:02;6.57;;;4.70;;
68987;SDS011;56038;46.080;11.116;2023-04-06T01:53:05;7.13;;;5.13;;
68987;SDS011;56038;46.080;11.116;2023-04-06T01:58:07;6.55;;;5.40;;
68987;SDS011;56038;46.080;11.116;2023-04-06T02:03:09;7.18;;;5.30;;
68987;SDS011;56038;46.080;11.116;2023-04-06T02:08:12;5.18;;;4.30;;
68987;SDS011;56038;46.080;11.116;2023-04-06T02:13:14;6.53;;;5.20;;
68987;SDS011;56038;46.080;11.116;2023-04-06T02:18:16;6.78;;;4.50;;
68987;SDS011;56038;46.080;11.116;2023-04-06T02:23:19;9.30;;;4.93;;
68987;SDS011;56038;46.080;11.116;2023-04-06T02:28:21;7.03;;;5.30;;
68987;SDS011;56038;46.080;11.116;2023-04-06T02:33:23;8.20;;;5.53;;
68987;SDS011;56038;46.080;11.116;2023-04-06T02:38:26;8.43;;;5.25;;
68987;SDS011;56038;46.080;11.116;2023-04-06T02:43:28;4.80;;;4.30;;
68987;SDS011;56038;46.080;11.116;2023-04-06T02:48:30;5.65;;;4.47;;
68987;SDS011;56038;46.080;11.116;2023-04-06T02:53:33;6.28;;;4.15;;
68987;SDS011;56038;46.080;11.116;2023-04-06T02:58:35;6.18;;;4.57;;
68987;SDS011;56038;46.080;11.116;2023-04-06T03:03:37;8.23;;;4.57;;
68987;SDS011;56038;46.080;11.116;2023-04-06T03:08:40;6.47;;;4.07;;
68987;SDS011;56038;46.080;11.116;2023-04-06T03:13:42;5.80;;;4.82;;
68987;SDS011;56038;46.080;11.116;2023-04-06T03:18:43;4.55;;;3.90;;
68987;SDS011;56038;46.080;11.116;2023-04-06T03:23:48;4.68;;;3.78;;
68987;SDS011;56038;46.080;11.116;2023-04-06T03:28:51;4.43;;;3.88;;
68987;SDS011;56038;46.080;11.116;2023-04-06T03:33:52;8.40;;;4.60;;
68987;SDS011;56038;46.080;11.116;2023-04-06T03:38:56;7.03;;;4.80;;
68987;SDS011;56038;46.080;11.116;2023-04-06T03:43:58;7.22;;;4.63;;
68987;SDS011;56038;46.080;11.116;2023-04-06T03:48:59;4.00;;;3.47;;
68987;SDS011;56038;46.080;11.116;2023-04-06T03:54:03;6.78;;;4.03;;
68987;SDS011;56038;46.080;11.116;2023-04-06T03:59:04;5.15;;;4.57;;
68987;SDS011;56038;46.080;11.116;2023-04-06T04:04:06;7.35;;;4.50;;
68987;SDS011;56038;46.080;11.116;2023-04-06T04:09:09;5.35;;;4.35;;
68987;SDS011;56038;46.080;11.116;2023-04-06T04:14:11;6.78;;;4.25;;
68987;SDS011;56038;46.080;11.116;2023-04-06T04:19:13;5.97;;;4.05;;
68987;SDS011;56038;46.080;11.116;2023-04-06T04:24:16;5.25;;;4.60;;
68987;SDS011;56038;46.080;11.116;2023-04-06T04:29:18;6.88;;;4.20;;
68987;SDS011;56038;46.080;11.116;2023-04-06T04:34:21;5.68;;;3.80;;
68987;SDS011;56038;46.080;11.116;2023-04-06T04:39:26;8.27;;;4.93;;
68987;SDS011;56038;46.080;11.116;2023-04-06T04:44:28;7.32;;;5.13;;
68987;SDS011;56038;46.080;11.116;2023-04-06T04:49:30;4.30;;;3.78;;
68987;SDS011;56038;46.080;11.116;2023-04-06T04:54:33;6.57;;;5.13;;
68987;SDS011;56038;46.080;11.116;2023-04-06T04:59:35;5.78;;;4.50;;
68987;SDS011;56038;46.080;11.116;2023-04-06T05:04:37;5.78;;;4.50;;
68987;SDS011;56038;46.080;11.116;2023-04-06T05:09:40;5.60;;;4.13;;
68987;SDS011;56038;46.080;11.116;2023-04-06T05:14:42;7.15;;;5.35;;
68987;SDS011;56038;46.080;11.116;2023-04-06T05:19:44;6.10;;;4.50;;
68987;SDS011;56038;46.080;11.116;2023-04-06T05:24:47;8.30;;;5.75;;
68987;SDS011;56038;46.080;11.116;2023-04-06T05:29:49;9.05;;;4.57;;
68987;SDS011;56038;46.080;11.116;2023-04-06T05:34:50;7.18;;;4.95;;
68987;SDS011;56038;46.080;11.116;2023-04-06T05:39:54;8.50;;;4.97;;
68987;SDS011;56038;46.080;11.116;2023-04-06T05:44:55;5.68;;;5.05;;
68987;SDS011;56038;46.080;11.116;2023-04-06T05:49:57;5.70;;;4.75;;
68987;SDS011;56038;46.080;11.116;2023-04-06T05:55:01;4.90;;;4.00;;
68987;SDS011;56038;46.080;11.116;2023-04-06T06:00:03;7.43;;;5.35;;
68987;SDS011;56038;46.080;11.116;2023-04-06T06:05:07;7.50;;;5.60;;
68987;SDS011;56038;46.080;11.116;2023-04-06T06:10:11;9.77;;;6.05;;
68987;SDS011;56038;46.080;11.116;2023-04-06T06:15:13;7.80;;;6.13;;
68987;SDS011;56038;46.080;11.116;2023-04-06T06:20:15;8.32;;;5.85;;
68987;SDS011;56038;46.080;11.116;2023-04-06T06:25:19;7.07;;;5.43;;
68987;SDS011;56038;46.080;11.116;2023-04-06T06:30:21;9.30;;;5.03;;
68987;SDS011;56038;46.080;11.116;2023-04-06T06:35:23;6.63;;;5.78;;
68987;SDS011;56038;46.080;11.116;2023-04-06T06:40:26;7.45;;;5.40;;
68987;SDS011;56038;46.080;11.116;2023-04-06T06:45:28;6.70;;;5.70;;
68987;SDS011;56038;46.080;11.116;2023-04-06T06:50:30;9.23;;;5.82;;
68987;SDS011;56038;46.080;11.116;2023-04-06T06:55:33;8.88;;;5.05;;
68987;SDS011;56038;46.080;11.116;2023-04-06T07:00:35;8.02;;;6.43;;
68987;SDS011;56038;46.080;11.116;2023-04-06T07:05:38;7.63;;;5.75;;
68987;SDS011;56038;46.080;11.116;2023-04-06T07:10:51;5.97;;;5.38;;
68987;SDS011;56038;46.080;11.116;2023-04-06T07:15:53;7.10;;;5.15;;
68987;SDS011;56038;46.080;11.116;2023-04-06T07:20:55;15.05;;;8.48;;
68987;SDS011;56038;46.080;11.116;2023-04-06T07:25:58;6.50;;;5.25;;
68987;SDS011;56038;46.080;11.116;2023-04-06T07:31:00;7.60;;;6.15;;
68987;SDS011;56038;46.080;11.116;2023-04-06T07:36:02;10.68;;;6.07;;
68987;SDS011;56038;46.080;11.116;2023-04-06T07:41:06;6.93;;;6.22;;
68987;SDS011;56038;46.080;11.116;2023-04-06T07:46:07;7.25;;;6.07;;
68987;SDS011;56038;46.080;11.116;2023-04-06T07:51:09;6.25;;;5.18;;
68987;SDS011;56038;46.080;11.116;2023-04-06T07:56:16;8.43;;;6.95;;
68987;SDS011;56038;46.080;11.116;2023-04-06T08:01:18;8.93;;;6.40;;
68987;SDS011;56038;46.080;11.116;2023-04-06T08:06:20;8.00;;;6.90;;
68987;SDS011;56038;46.080;11.116;2023-04-06T08:11:24;8.60;;;5.95;;
68987;SDS011;56038;46.080;11.116;2023-04-06T08:16:26;6.93;;;5.75;;
68987;SDS011;56038;46.080;11.116;2023-04-06T08:21:28;8.00;;;5.65;;
68987;SDS011;56038;46.080;11.116;2023-04-06T08:26:31;8.57;;;6.55;;
68987;SDS011;56038;46.080;11.116;2023-04-06T08:31:33;6.90;;;5.35;;
68987;SDS011;56038;46.080;11.116;2023-04-06T08:36:35;8.15;;;6.40;;
68987;SDS011;56038;46.080;11.116;2023-04-06T08:41:39;9.85;;;6.45;;
68987;SDS011;56038;46.080;11.116;2023-04-06T08:46:43;12.13;;;7.88;;
68987;SDS011;56038;46.080;11.116;2023-04-06T08:51:45;7.93;;;5.88;;
68987;SDS011;56038;46.080;11.116;2023-04-06T08:56:49;7.38;;;5.53;;
68987;SDS011;56038;46.080;11.116;2023-04-06T09:01:53;7.70;;;5.85;;
68987;SDS011;56038;46.080;11.116;2023-04-06T09:06:56;11.23;;;5.50;;
68987;SDS011;56038;46.080;11.116;2023-04-06T09:12:00;11.65;;;7.60;;
68987;SDS011;56038;46.080;11.116;2023-04-06T09:17:05;7.90;;;7.10;;
68987;SDS011;56038;46.080;11.116;2023-04-06T09:22:07;8.18;;;6.22;;
68987;SDS011;56038;46.080;11.116;2023-04-06T09:27:11;8.30;;;6.18;;
68987;SDS011;56038;46.080;11.116;2023-04-06T09:32:13;7.75;;;6.25;;
68987;SDS011;56038;46.080;11.116;2023-04-06T09:37:17;7.75;;;5.85;;
68987;SDS011;56038;46.080;11.116;2023-04-06T09:42:25;7.55;;;5.55;;
68987;SDS011;56038;46.080;11.116;2023-04-06T09:47:27;8.32;;;7.22;;
68987;SDS011;56038;46.080;11.116;2023-04-06T09:52:30;9.35;;;7.00;;
68987;SDS011;56038;46.080;11.116;2023-04-06T09:57:37;6.72;;;5.60;;
68987;SDS011;56038;46.080;11.116;2023-04-06T10:02:48;6.50;;;5.82;;
68987;SDS011;56038;46.080;11.116;2023-04-06T10:07:55;6.88;;;5.70;;
68987;SDS011;56038;46.080;11.116;2023-04-06T10:13:02;8.63;;;5.20;;
68987;SDS011;56038;46.080;11.116;2023-04-06T10:18:05;6.40;;;5.03;;
68987;SDS011;56038;46.080;11.116;2023-04-06T10:23:08;6.68;;;4.65;;
68987;SDS011;56038;46.080;11.116;2023-04-06T10:28:17;5.75;;;4.20;;
68987;SDS011;56038;46.080;11.116;2023-04-06T10:38:32;3.03;;;2.75;;
68987;SDS011;56038;46.080;11.116;2023-04-06T10:43:37;3.03;;;2.53;;
68987;SDS011;56038;46.080;11.116;2023-04-06T10:48:40;5.35;;;2.10;;
68987;SDS011;56038;46.080;11.116;2023-04-06T10:53:43;4.30;;;3.35;;
68987;SDS011;56038;46.080;11.116;2023-04-06T10:58:48;3.45;;;2.90;;
68987;SDS011;56038;46.080;11.116;2023-04-06T11:03:52;4.07;;;3.10;;
68987;SDS011;56038;46.080;11.116;2023-04-06T11:08:58;3.25;;;2.78;;
68987;SDS011;56038;46.080;11.116;2023-04-06T11:14:01;3.15;;;2.85;;
68987;SDS011;56038;46.080;11.116;2023-04-06T11:19:03;2.97;;;2.70;;
68987;SDS011;56038;46.080;11.116;2023-04-06T11:24:07;2.88;;;2.60;;
68987;SDS011;56038;46.080;11.116;2023-04-06T11:29:12;2.90;;;2.60;;
68987;SDS011;56038;46.080;11.116;2023-04-06T11:34:16;2.88;;;2.60;;
68987;SDS011;56038;46.080;11.116;2023-04-06T11:39:20;3.97;;;2.60;;
68987;SDS011;56038;46.080;11.116;2023-04-06T11:44:31;3.05;;;2.55;;
68987;SDS011;56038;46.080;11.116;2023-04-06T11:49:38;2.88;;;2.67;;
68987;SDS011;56038;46.080;11.116;2023-04-06T11:54:41;3.08;;;2.45;;
68987;SDS011;56038;46.080;11.116;2023-04-06T11:59:44;4.97;;;3.22;;
68987;SDS011;56038;46.080;11.116;2023-04-06T12:04:47;3.08;;;2.78;;
68987;SDS011;56038;46.080;11.116;2023-04-06T12:09:49;3.70;;;3.40;;
68987;SDS011;56038;46.080;11.116;2023-04-06T12:14:52;3.70;;;2.95;;
68987;SDS011;56038;46.080;11.116;2023-04-06T12:19:54;4.78;;;3.80;;
68987;SDS011;56038;46.080;11.116;2023-04-06T12:24:56;3.25;;;2.97;;
68987;SDS011;56038;46.080;11.116;2023-04-06T12:29:59;3.72;;;3.33;;
68987;SDS011;56038;46.080;11.116;2023-04-06T12:35:01;4.43;;;3.10;;
68987;SDS011;56038;46.080;11.116;2023-04-06T12:40:04;3.53;;;3.15;;
68987;SDS011;56038;46.080;11.116;2023-04-06T12:45:08;4.35;;;3.92;;
68987;SDS011;56038;46.080;11.116;2023-04-06T12:50:11;5.15;;;3.70;;
68987;SDS011;56038;46.080;11.116;2023-04-06T12:55:13;5.75;;;3.88;;
68987;SDS011;56038;46.080;11.116;2023-04-06T13:00:17;4.72;;;4.03;;
68987;SDS011;56038;46.080;11.116;2023-04-06T13:05:21;5.55;;;4.47;;
68987;SDS011;56038;46.080;11.116;2023-04-06T13:10:26;6.88;;;5.18;;
68987;SDS011;56038;46.080;11.116;2023-04-06T13:15:31;6.68;;;5.07;;
68987;SDS011;56038;46.080;11.116;2023-04-06T13:20:35;6.60;;;5.30;;
68987;SDS011;56038;46.080;11.116;2023-04-06T13:25:37;5.95;;;5.20;;
68987;SDS011;56038;46.080;11.116;2023-04-06T13:30:40;7.38;;;5.70;;
68987;SDS011;56038;46.080;11.116;2023-04-06T13:35:44;6.10;;;5.25;;
68987;SDS011;56038;46.080;11.116;2023-04-06T13:40:46;5.77;;;5.23;;
68987;SDS011;56038;46.080;11.116;2023-04-06T13:45:52;6.18;;;5.55;;
68987;SDS011;56038;46.080;11.116;2023-04-06T13:50:56;6.82;;;5.00;;
68987;SDS011;56038;46.080;11.116;2023-04-06T13:55:58;5.95;;;5.35;;
68987;SDS011;56038;46.080;11.116;2023-04-06T14:01:03;5.65;;;5.13;;
68987;SDS011;56038;46.080;11.116;2023-04-06T14:06:09;7.55;;;4.57;;
68987;SDS011;56038;46.080;11.116;2023-04-06T14:11:12;7.40;;;6.13;;
68987;SDS011;56038;46.080;11.116;2023-04-06T14:16:16;6.95;;;5.68;;
68987;SDS011;56038;46.080;11.116;2023-04-06T14:21:19;6.50;;;5.40;;
68987;SDS011;56038;46.080;11.116;2023-04-06T14:26:21;8.95;;;5.35;;
68987;SDS011;56038;46.080;11.116;2023-04-06T14:31:25;7.00;;;5.07;;
68987;SDS011;56038;46.080;11.116;2023-04-06T14:36:29;8.40;;;6.30;;
68987;SDS011;56038;46.080;11.116;2023-04-06T14:41:36;9.98;;;6.28;;
68987;SDS011;56038;46.080;11.116;2023-04-06T14:46:39;8.50;;;5.88;;
68987;SDS011;56038;46.080;11.116;2023-04-06T14:51:41;6.85;;;5.82;;
68987;SDS011;56038;46.080;11.116;2023-04-06T14:56:43;7.30;;;6.60;;
68987;SDS011;56038;46.080;11.116;2023-04-06T15:01:46;10.02;;;6.75;;
68987;SDS011;56038;46.080;11.116;2023-04-06T15:06:48;8.68;;;6.93;;
68987;SDS011;56038;46.080;11.116;2023-04-06T15:11:50;7.88;;;6.32;;
68987;SDS011;56038;46.080;11.116;2023-04-06T15:16:53;11.18;;;7.85;;
68987;SDS011;56038;46.080;11.116;2023-04-06T15:21:55;11.65;;;7.13;;
68987;SDS011;56038;46.080;11.116;2023-04-06T15:26:56;9.38;;;6.72;;
68987;SDS011;56038;46.080;11.116;2023-04-06T15:32:00;9.30;;;7.82;;
68987;SDS011;56038;46.080;11.116;2023-04-06T15:37:01;9.50;;;8.05;;
68987;SDS011;56038;46.080;11.116;2023-04-06T15:42:04;12.45;;;7.63;;
68987;SDS011;56038;46.080;11.116;2023-04-06T15:47:07;9.82;;;7.65;;
68987;SDS011;56038;46.080;11.116;2023-04-06T15:52:09;9.20;;;7.97;;
68987;SDS011;56038;46.080;11.116;2023-04-06T15:57:11;9.38;;;7.38;;
68987;SDS011;56038;46.080;11.116;2023-04-06T16:02:15;9.05;;;7.50;;
68987;SDS011;56038;46.080;11.116;2023-04-06T16:07:17;13.25;;;8.93;;
68987;SDS011;56038;46.080;11.116;2023-04-06T16:12:19;8.63;;;6.95;;
68987;SDS011;56038;46.080;11.116;2023-04-06T16:17:23;9.57;;;7.13;;
68987;SDS011;56038;46.080;11.116;2023-04-06T16:22:26;11.27;;;7.23;;
68987;SDS011;56038;46.080;11.116;2023-04-06T16:27:29;11.25;;;7.38;;
68987;SDS011;56038;46.080;11.116;2023-04-06T16:32:33;9.85;;;7.13;;
68987;SDS011;56038;46.080;11.116;2023-04-06T16:37:35;9.50;;;7.72;;
68987;SDS011;56038;46.080;11.116;2023-04-06T16:42:36;10.15;;;8.25;;
68987;SDS011;56038;46.080;11.116;2023-04-06T16:47:40;9.80;;;8.02;;
68987;SDS011;56038;46.080;11.116;2023-04-06T16:52:42;8.70;;;7.45;;
68987;SDS011;56038;46.080;11.116;2023-04-06T16:57:46;8.10;;;6.00;;
68987;SDS011;56038;46.080;11.116;2023-04-06T17:02:50;8.95;;;7.38;;
68987;SDS011;56038;46.080;11.116;2023-04-06T17:07:52;10.05;;;6.88;;
68987;SDS011;56038;46.080;11.116;2023-04-06T17:12:54;9.05;;;7.22;;
68987;SDS011;56038;46.080;11.116;2023-04-06T17:17:57;10.07;;;6.28;;
68987;SDS011;56038;46.080;11.116;2023-04-06T17:22:59;10.02;;;6.65;;
68987;SDS011;56038;46.080;11.116;2023-04-06T17:28:01;6.93;;;6.15;;
68987;SDS011;56038;46.080;11.116;2023-04-06T17:33:04;8.68;;;5.70;;
68987;SDS011;56038;46.080;11.116;2023-04-06T17:38:06;9.75;;;7.15;;
68987;SDS011;56038;46.080;11.116;2023-04-06T17:43:09;9.80;;;6.07;;
68987;SDS011;56038;46.080;11.116;2023-04-06T17:48:13;11.65;;;7.35;;
68987;SDS011;56038;46.080;11.116;2023-04-06T17:53:14;10.65;;;6.90;;
68987;SDS011;56038;46.080;11.116;2023-04-06T17:58:19;10.50;;;7.37;;
68987;SDS011;56038;46.080;11.116;2023-04-06T18:03:22;11.45;;;6.82;;
68987;SDS011;56038;46.080;11.116;2023-04-06T18:08:24;6.65;;;5.85;;
68987;SDS011;56038;46.080;11.116;2023-04-06T18:13:26;13.18;;;8.57;;
68987;SDS011;56038;46.080;11.116;2023-04-06T18:24:10;7.15;;;5.38;;
68987;SDS011;56038;46.080;11.116;2023-04-06T18:29:12;6.40;;;5.80;;
68987;SDS011;56038;46.080;11.116;2023-04-06T18:34:13;9.07;;;6.72;;
68987;SDS011;56038;46.080;11.116;2023-04-06T18:39:17;8.55;;;6.22;;
68987;SDS011;56038;46.080;11.116;2023-04-06T18:44:20;6.60;;;5.77;;
68987;SDS011;56038;46.080;11.116;2023-04-06T18:49:22;10.55;;;7.13;;
68987;SDS011;56038;46.080;11.116;2023-04-06T18:54:26;10.05;;;7.15;;
68987;SDS011;56038;46.080;11.116;2023-04-06T18:59:27;8.65;;;6.78;;
68987;SDS011;56038;46.080;11.116;2023-04-06T19:04:30;7.07;;;5.80;;
68987;SDS011;56038;46.080;11.116;2023-04-06T19:09:33;11.13;;;7.60;;
68987;SDS011;56038;46.080;11.116;2023-04-06T19:14:35;7.65;;;5.38;;
68987;SDS011;56038;46.080;11.116;2023-04-06T19:19:37;9.38;;;6.32;;
68987;SDS011;56038;46.080;11.116;2023-04-06T19:24:41;9.38;;;6.60;;
68987;SDS011;56038;46.080;11.116;2023-04-06T19:29:43;10.48;;;6.68;;
68987;SDS011;56038;46.080;11.116;2023-04-06T19:34:45;7.85;;;6.28;;
68987;SDS011;56038;46.080;11.116;2023-04-06T19:39:48;11.27;;;7.00;;
68987;SDS011;56038;46.080;11.116;2023-04-06T19:44:51;7.55;;;6.43;;
68987;SDS011;56038;46.080;11.116;2023-04-06T19:49:54;10.50;;;6.72;;
68987;SDS011;56038;46.080;11.116;2023-04-06T19:54:58;10.13;;;7.63;;
68987;SDS011;56038;46.080;11.116;2023-04-06T20:00:00;9.27;;;7.57;;
68987;SDS011;56038;46.080;11.116;2023-04-06T20:05:03;10.02;;;7.75;;
68987;SDS011;56038;46.080;11.116;2023-04-06T20:10:07;10.73;;;7.45;;
68987;SDS011;56038;46.080;11.116;2023-04-06T20:15:10;13.30;;;7.85;;
68987;SDS011;56038;46.080;11.116;2023-04-06T20:20:13;9.65;;;8.13;;
68987;SDS011;56038;46.080;11.116;2023-04-06T20:25:16;8.27;;;6.18;;
68987;SDS011;56038;46.080;11.116;2023-04-06T20:30:19;11.13;;;7.95;;
68987;SDS011;56038;46.080;11.116;2023-04-06T20:35:21;7.93;;;6.72;;
68987;SDS011;56038;46.080;11.116;2023-04-06T20:40:24;10.82;;;6.72;;
68987;SDS011;56038;46.080;11.116;2023-04-06T20:45:26;10.77;;;7.53;;
68987;SDS011;56038;46.080;11.116;2023-04-06T20:50:28;8.30;;;6.90;;
68987;SDS011;56038;46.080;11.116;2023-04-06T20:55:32;9.82;;;7.88;;
68987;SDS011;56038;46.080;11.116;2023-04-06T21:00:36;12.43;;;7.40;;
68987;SDS011;56038;46.080;11.116;2023-04-06T21:05:39;10.82;;;8.13;;
68987;SDS011;56038;46.080;11.116;2023-04-06T21:10:52;11.63;;;8.00;;
68987;SDS011;56038;46.080;11.116;2023-04-06T21:15:54;9.88;;;7.38;;
68987;SDS011;56038;46.080;11.116;2023-04-06T21:20:56;11.20;;;8.30;;
68987;SDS011;56038;46.080;11.116;2023-04-06T21:26:00;9.60;;;7.57;;
68987;SDS011;56038;46.080;11.116;2023-04-06T21:31:04;12.13;;;7.82;;
68987;SDS011;56038;46.080;11.116;2023-04-06T21:36:07;10.10;;;6.90;;
68987;SDS011;56038;46.080;11.116;2023-04-06T21:41:11;8.65;;;6.05;;
68987;SDS011;56038;46.080;11.116;2023-04-06T21:46:13;11.15;;;7.72;;
68987;SDS011;56038;46.080;11.116;2023-04-06T21:51:15;9.32;;;7.35;;
68987;SDS011;56038;46.080;11.116;2023-04-06T21:56:22;10.65;;;7.18;;
68987;SDS011;56038;46.080;11.116;2023-04-06T22:01:25;14.87;;;8.47;;
68987;SDS011;56038;46.080;11.116;2023-04-06T22:06:27;9.65;;;7.38;;
68987;SDS011;56038;46.080;11.116;2023-04-06T22:11:30;10.48;;;8.30;;
68987;SDS011;56038;46.080;11.116;2023-04-06T22:16:32;12.90;;;7.20;;
68987;SDS011;56038;46.080;11.116;2023-04-06T22:21:34;9.45;;;6.90;;
68987;SDS011;56038;46.080;11.116;2023-04-06T22:26:37;10.15;;;7.28;;
68987;SDS011;56038;46.080;11.116;2023-04-06T22:31:39;10.18;;;6.78;;
68987;SDS011;56038;46.080;11.116;2023-04-06T22:36:41;8.40;;;6.28;;
68987;SDS011;56038;46.080;11.116;2023-04-06T22:41:44;11.15;;;7.53;;
68987;SDS011;56038;46.080;11.116;2023-04-06T22:46:46;9.50;;;7.07;;
68987;SDS011;56038;46.080;11.116;2023-04-06T22:51:47;7.68;;;6.03;;
68987;SDS011;56038;46.080;11.116;2023-04-06T22:56:51;10.43;;;6.07;;
68987;SDS011;56038;46.080;11.116;2023-04-06T23:01:53;8.82;;;6.72;;
68987;SDS011;56038;46.080;11.116;2023-04-06T23:06:55;8.65;;;6.82;;
68987;SDS011;56038;46.080;11.116;2023-04-06T23:11:59;9.68;;;6.22;;
68987;SDS011;56038;46.080;11.116;2023-04-06T23:17:01;8.73;;;6.13;;
68987;SDS011;56038;46.080;11.116;2023-04-06T23:22:02;9.48;;;6.97;;
68987;SDS011;56038;46.080;11.116;2023-04-06T23:27:06;8.88;;;6.82;;
68987;SDS011;56038;46.080;11.116;2023-04-06T23:32:07;8.40;;;6.28;;
68987;SDS011;56038;46.080;11.116;2023-04-06T23:37:10;9.75;;;6.85;;
68987;SDS011;56038;46.080;11.116;2023-04-06T23:42:14;10.23;;;6.70;;
68987;SDS011;56038;46.080;11.116;2023-04-06T23:47:15;9.25;;;7.13;;
68987;SDS011;56038;46.080;11.116;2023-04-06T23:52:17;8.77;;;7.00;;
68987;SDS011;56038;46.080;11.116;2023-04-06T23:57:20;8.80;;;6.57;;
